Terminal Aerodrome Forecast
Issued by NWS Miami, FL

Current Version | Previous Version | Text Only | Print | Product List | Glossary On
Versions: 1 2 3 4 5 6 7 8 9 10 11 12 13 14 15 16 17 18 19 20 21 22 23 24 25 26 27 28 29 30 31 32 33 34 35 36 37 38 39 40 41 42 43 44 45 46 47
000
FTUS42 KMFL 240611 CCA
TAFAPF
TAF COR
KAPF 240611Z 2406/2506 29006KT P6SM VCTS SCT035CB BKN040
      TEMPO 2407/2409 VRB15G25KT 5SM TSRA BKN025CB
     FM240900 26005KT P6SM BKN030
     FM241500 31008KT P6SM OVC050=

USA.gov is the U.S. government's official web portal to all federal, state and local government web resources and services.